createdAt,value
2019-01-18T00:01:28.746Z,-6.20
2019-01-18T00:04:00.722Z,-6.20
2019-01-18T00:06:31.447Z,-6.20
2019-01-18T00:09:02.578Z,-6.20
2019-01-18T00:11:34.545Z,-6.10
2019-01-18T00:14:05.211Z,-6.10
2019-01-18T00:16:35.842Z,-6.10
2019-01-18T00:19:06.218Z,-6.20
2019-01-18T00:21:36.978Z,-6.10
2019-01-18T00:24:07.623Z,-6.00
2019-01-18T00:26:38.337Z,-6.10
2019-01-18T00:29:08.846Z,-6.10
2019-01-18T00:31:39.318Z,-6.00
2019-01-18T00:34:09.811Z,-6.10
2019-01-18T00:36:40.557Z,-6.10
2019-01-18T00:39:11.379Z,-6.10
2019-01-18T00:41:41.813Z,-6.10
2019-01-18T00:44:12.290Z,-6.10
2019-01-18T00:46:42.811Z,-6.10
2019-01-18T00:49:13.250Z,-6.10
2019-01-18T00:51:43.878Z,-6.10
2019-01-18T00:54:14.621Z,-6.10
2019-01-18T00:56:45.245Z,-6.20
2019-01-18T00:59:15.844Z,-6.10
2019-01-18T01:01:46.418Z,-6.10
2019-01-18T01:04:16.978Z,-6.10
2019-01-18T01:06:47.563Z,-6.10
2019-01-18T01:09:18.102Z,-6.20
2019-01-18T01:11:50.198Z,-6.20
2019-01-18T01:14:20.582Z,-6.20
2019-01-18T01:16:51.163Z,-6.10
2019-01-18T01:19:21.632Z,-6.10
2019-01-18T01:21:52.467Z,-6.10
2019-01-18T01:24:22.951Z,-6.20
2019-01-18T01:26:53.825Z,-6.20
2019-01-18T01:29:24.499Z,-6.20
2019-01-18T01:31:55.331Z,-6.20
2019-01-18T01:34:25.816Z,-6.20
2019-01-18T01:36:56.543Z,-6.30
2019-01-18T01:39:27.046Z,-6.30
2019-01-18T01:41:57.606Z,-6.30
2019-01-18T01:46:58.106Z,-6.40
2019-01-18T01:49:28.658Z,-6.40
2019-01-18T01:51:59.275Z,-6.40
2019-01-18T01:54:30.073Z,-6.50
2019-01-18T01:57:00.591Z,-6.40
2019-01-18T01:59:31.263Z,-6.40
2019-01-18T02:02:01.723Z,-6.50
2019-01-18T02:04:32.158Z,-6.50
2019-01-18T02:07:02.535Z,-6.50
2019-01-18T02:09:33.277Z,-6.50
2019-01-18T02:12:07.018Z,-6.50
2019-01-18T02:14:37.643Z,-6.50
2019-01-18T02:17:08.388Z,-6.50
2019-01-18T02:19:39.043Z,-6.50
2019-01-18T02:22:09.935Z,-6.50
2019-01-18T02:24:40.576Z,-6.50
2019-01-18T02:27:10.982Z,-6.40
2019-01-18T02:29:41.547Z,-6.40
2019-01-18T02:32:12.143Z,-6.40
2019-01-18T02:34:42.568Z,-6.50
2019-01-18T02:37:13.067Z,-6.40
2019-01-18T02:39:43.859Z,-6.50
2019-01-18T02:42:14.322Z,-6.40
2019-01-18T02:44:44.727Z,-6.40
2019-01-18T02:47:15.373Z,-6.50
2019-01-18T02:49:45.982Z,-6.50
2019-01-18T02:52:16.565Z,-6.40
2019-01-18T02:54:47.273Z,-6.50
2019-01-18T02:57:18.798Z,-6.40
2019-01-18T03:19:47.417Z,-6.10
2019-01-18T03:22:17.787Z,-6.20
2019-01-18T03:24:48.727Z,-6.00
2019-01-18T03:27:19.074Z,-6.00
2019-01-18T03:29:49.626Z,-6.00
2019-01-18T03:32:20.274Z,-6.00
2019-01-18T03:34:50.719Z,-6.00
2019-01-18T03:37:21.426Z,-5.80
2019-01-18T03:39:52.034Z,-5.80
2019-01-18T03:42:22.615Z,-5.80
2019-01-18T03:44:53.178Z,-5.80
2019-01-18T03:47:23.736Z,-5.80
2019-01-18T03:49:54.352Z,-5.80
2019-01-18T03:52:25.015Z,-5.70
2019-01-18T03:54:55.469Z,-5.80
2019-01-18T03:57:26.011Z,-5.80
2019-01-18T03:59:56.559Z,-5.80
2019-01-18T04:02:27.070Z,-5.80
2019-01-18T04:04:57.747Z,-5.70
2019-01-18T04:07:28.147Z,-5.70
2019-01-18T04:09:58.990Z,-5.80
2019-01-18T04:12:29.760Z,-5.80
2019-01-18T04:15:00.343Z,-5.80
2019-01-18T04:17:31.064Z,-5.80
2019-01-18T04:20:01.621Z,-5.80
2019-01-18T04:22:32.264Z,-5.80
2019-01-18T04:25:02.800Z,-5.80
2019-01-18T04:27:33.387Z,-5.80
2019-01-18T04:30:04.000Z,-5.80
2019-01-18T04:32:34.432Z,-5.80
2019-01-18T04:35:05.759Z,-5.80
2019-01-18T04:37:36.371Z,-5.80
2019-01-18T04:40:09.399Z,-5.90
2019-01-18T04:42:40.076Z,-6.00
2019-01-18T04:45:11.460Z,-6.10
2019-01-18T04:47:42.128Z,-6.00
2019-01-18T04:50:20.866Z,-6.10
2019-01-18T04:52:52.353Z,-6.10
2019-01-18T04:55:23.047Z,-6.00
2019-01-18T04:57:53.700Z,-6.10
2019-01-18T05:00:26.038Z,-6.00
2019-01-18T05:02:56.963Z,-6.10
2019-01-18T05:05:27.570Z,-6.20
2019-01-18T05:07:58.430Z,-6.30
2019-01-18T05:10:29.863Z,-6.30
2019-01-18T05:13:00.574Z,-6.40
2019-01-18T05:15:32.486Z,-6.50
2019-01-18T05:18:03.362Z,-6.60
2019-01-18T05:20:33.863Z,-6.70
2019-01-18T05:23:04.371Z,-6.60
2019-01-18T05:25:35.050Z,-6.70
2019-01-18T05:28:05.561Z,-6.70
2019-01-18T05:30:36.260Z,-6.60
2019-01-18T05:33:06.980Z,-6.60
2019-01-18T05:35:37.620Z,-6.50
2019-01-18T05:38:08.172Z,-6.40
2019-01-18T05:40:38.966Z,-6.50
2019-01-18T05:43:09.526Z,-6.50
2019-01-18T05:45:40.196Z,-6.60
2019-01-18T05:48:10.839Z,-6.60
2019-01-18T05:50:42.380Z,-6.60
2019-01-18T05:53:13.495Z,-6.70
2019-01-18T05:55:47.245Z,-6.70
2019-01-18T05:58:18.279Z,-6.80
2019-01-18T06:00:56.465Z,-6.80
2019-01-18T06:03:27.128Z,-6.90
2019-01-18T06:05:57.612Z,-6.90
2019-01-18T06:08:28.307Z,-7.00
2019-01-18T06:10:58.902Z,-7.00
2019-01-18T06:13:30.627Z,-7.00
2019-01-18T06:16:02.595Z,-6.90
2019-01-18T06:18:33.138Z,-7.00
2019-01-18T06:21:04.888Z,-7.00
2019-01-18T06:23:35.463Z,-7.00
2019-01-18T06:26:09.439Z,-7.00
2019-01-18T06:28:40.424Z,-7.10
2019-01-18T06:31:11.448Z,-7.10
2019-01-18T06:33:42.263Z,-7.10
2019-01-18T06:36:12.823Z,-7.20
2019-01-18T06:38:43.660Z,-7.20
2019-01-18T06:41:22.847Z,-7.30
2019-01-18T06:43:53.792Z,-7.30
2019-01-18T06:46:24.527Z,-7.30
2019-01-18T06:48:57.480Z,-7.30
2019-01-18T06:51:28.104Z,-7.30
2019-01-18T06:53:59.031Z,-7.40
2019-01-18T06:56:30.510Z,-7.40
2019-01-18T06:59:04.917Z,-7.40
2019-01-18T07:01:35.630Z,-7.40
2019-01-18T07:04:06.790Z,-7.40
2019-01-18T07:06:37.713Z,-7.40
2019-01-18T07:09:10.259Z,-7.40
2019-01-18T07:11:41.083Z,-7.30
2019-01-18T07:14:12.239Z,-7.30
2019-01-18T07:16:42.946Z,-7.30
2019-01-18T07:19:13.668Z,-7.20
2019-01-18T07:21:44.307Z,-7.20
2019-01-18T07:24:15.130Z,-7.20
2019-01-18T07:26:45.877Z,-7.20
2019-01-18T07:29:16.420Z,-7.10
2019-01-18T07:31:49.929Z,-7.00
2019-01-18T07:34:22.177Z,-6.80
2019-01-18T07:36:54.082Z,-6.90
2019-01-18T07:39:26.518Z,-6.90
2019-01-18T07:41:57.379Z,-6.90
2019-01-18T07:44:28.240Z,-6.90
2019-01-18T07:46:58.844Z,-6.90
2019-01-18T07:49:30.573Z,-6.90
2019-01-18T07:52:01.421Z,-6.70
2019-01-18T07:54:32.515Z,-6.80
2019-01-18T07:57:03.403Z,-6.80
2019-01-18T07:59:33.945Z,-6.80
2019-01-18T08:02:04.655Z,-6.80
2019-01-18T08:04:35.502Z,-6.70
2019-01-18T08:07:06.305Z,-6.60
2019-01-18T08:09:37.267Z,-6.50
2019-01-18T08:12:08.186Z,-6.50
2019-01-18T08:14:39.071Z,-6.40
2019-01-18T08:17:10.026Z,-6.20
2019-01-18T08:19:40.703Z,-6.10
2019-01-18T08:22:11.526Z,-6.20
2019-01-18T08:24:42.296Z,-6.00
2019-01-18T08:27:13.299Z,-5.90
2019-01-18T08:29:44.014Z,-6.00
2019-01-18T08:32:14.717Z,-5.90
2019-01-18T08:34:45.459Z,-6.00
2019-01-18T08:37:16.051Z,-5.90
2019-01-18T08:39:46.990Z,-5.90
2019-01-18T08:42:17.961Z,-5.90
2019-01-18T08:44:48.787Z,-5.80
2019-01-18T08:47:19.545Z,-5.80
2019-01-18T08:49:50.230Z,-5.80
2019-01-18T08:52:22.194Z,-5.80
2019-01-18T08:54:53.010Z,-5.80
2019-01-18T08:57:23.840Z,-5.70
2019-01-18T08:59:54.755Z,-5.50
2019-01-18T09:02:26.062Z,-5.50
2019-01-18T09:04:56.872Z,-5.20
2019-01-18T09:07:28.152Z,-5.00
2019-01-18T09:10:05.023Z,-4.80
2019-01-18T09:12:36.226Z,-4.60
2019-01-18T09:15:08.509Z,-4.30
2019-01-18T09:17:39.326Z,-4.20
2019-01-18T09:20:18.309Z,-4.10
2019-01-18T09:22:49.019Z,-3.90
2019-01-18T09:25:19.763Z,-3.90
2019-01-18T09:27:50.836Z,-3.80
2019-01-18T09:30:23.480Z,-3.90
2019-01-18T09:32:54.952Z,-3.90
2019-01-18T09:35:26.931Z,-3.90
2019-01-18T09:37:58.803Z,-4.00
2019-01-18T09:40:31.849Z,-4.10
2019-01-18T09:43:02.934Z,-4.10
2019-01-18T09:45:33.600Z,-4.20
2019-01-18T09:48:05.631Z,-4.20
2019-01-18T09:50:36.647Z,-4.30
2019-01-18T09:53:08.760Z,-4.20
2019-01-18T09:55:39.412Z,-4.10
2019-01-18T09:58:10.358Z,-3.90
2019-01-18T10:00:41.132Z,-3.90
2019-01-18T10:03:11.860Z,-3.80
2019-01-18T10:05:42.564Z,-3.70
2019-01-18T10:08:13.573Z,-3.70
2019-01-18T10:10:45.325Z,-3.60
2019-01-18T10:13:16.389Z,-3.40
2019-01-18T10:15:48.746Z,-3.20
2019-01-18T10:18:19.408Z,-3.00
2019-01-18T10:20:50.154Z,-2.70
2019-01-18T10:23:20.904Z,-2.50
2019-01-18T10:25:51.844Z,-2.30
2019-01-18T10:28:23.028Z,-2.20
2019-01-18T10:30:53.786Z,-2.20
2019-01-18T10:33:24.461Z,-2.20
2019-01-18T10:35:55.639Z,-2.20
2019-01-18T10:38:26.510Z,-2.40
2019-01-18T10:40:57.580Z,-2.50
2019-01-18T10:43:28.713Z,-2.60
2019-01-18T10:45:59.735Z,-2.60
2019-01-18T10:48:30.741Z,-2.60
2019-01-18T10:51:02.106Z,-2.60
2019-01-18T10:53:33.251Z,-2.60
2019-01-18T10:56:04.374Z,-2.60
2019-01-18T10:58:38.796Z,-2.40
2019-01-18T11:01:09.446Z,-2.30
2019-01-18T11:03:40.305Z,-2.30
2019-01-18T11:06:11.332Z,-2.10
2019-01-18T11:08:42.121Z,-2.10
2019-01-18T11:11:12.718Z,-1.90
2019-01-18T11:13:43.681Z,-1.70
2019-01-18T11:16:14.305Z,-1.50
2019-01-18T11:18:44.939Z,-1.20
2019-01-18T11:21:18.875Z,-1.00
2019-01-18T11:23:49.620Z,-0.70
2019-01-18T11:26:20.473Z,-0.20
2019-01-18T11:28:51.495Z,0.20
2019-01-18T11:31:23.460Z,0.50
2019-01-18T11:33:54.211Z,0.80
2019-01-18T11:36:24.965Z,1.00
2019-01-18T11:38:55.567Z,1.20
2019-01-18T11:41:26.272Z,1.40
2019-01-18T11:43:57.027Z,1.60
2019-01-18T11:46:27.612Z,1.80
2019-01-18T11:48:58.014Z,1.90
2019-01-18T11:51:28.820Z,2.00
2019-01-18T11:53:59.505Z,2.00
2019-01-18T11:56:30.300Z,2.00
2019-01-18T11:59:01.213Z,2.10
2019-01-18T12:01:31.692Z,2.10
2019-01-18T12:04:02.248Z,2.10
2019-01-18T12:06:32.663Z,2.20
2019-01-18T12:09:04.459Z,2.20
2019-01-18T12:11:38.475Z,2.20
2019-01-18T12:14:09.166Z,2.30
2019-01-18T12:16:39.940Z,2.30
2019-01-18T12:19:10.861Z,2.30
2019-01-18T12:21:41.761Z,2.30
2019-01-18T12:24:12.251Z,2.40
2019-01-18T12:26:43.023Z,2.50
2019-01-18T12:29:13.705Z,2.50
2019-01-18T12:31:44.381Z,2.50
2019-01-18T12:34:14.960Z,2.50
2019-01-18T12:36:45.716Z,2.60
2019-01-18T12:39:16.406Z,2.70
2019-01-18T12:41:47.335Z,2.70
2019-01-18T12:44:18.104Z,2.70
2019-01-18T12:46:48.695Z,2.70
2019-01-18T12:49:19.080Z,2.70
2019-01-18T12:51:49.835Z,2.80
2019-01-18T12:54:20.381Z,2.70
2019-01-18T12:56:50.850Z,2.80
2019-01-18T12:59:21.830Z,2.80
2019-01-18T13:01:52.643Z,2.80
2019-01-18T13:04:23.499Z,2.80
2019-01-18T13:06:54.165Z,2.90
2019-01-18T13:09:24.728Z,3.10
2019-01-18T13:11:55.359Z,3.20
2019-01-18T13:14:26.065Z,3.70
2019-01-18T13:16:56.572Z,4.00
2019-01-18T13:19:27.287Z,4.10
2019-01-18T13:21:57.912Z,3.90
2019-01-18T13:24:28.562Z,4.30
2019-01-18T13:26:59.002Z,4.80
2019-01-18T13:29:29.742Z,4.00
2019-01-18T13:32:00.372Z,3.70
2019-01-18T13:34:30.810Z,3.50
2019-01-18T13:37:01.611Z,3.30
2019-01-18T13:39:32.298Z,3.10
2019-01-18T13:42:02.935Z,3.00
2019-01-18T13:44:33.699Z,2.90
2019-01-18T13:47:07.098Z,2.90
2019-01-18T13:49:37.494Z,2.80
2019-01-18T13:52:08.172Z,2.80
2019-01-18T13:54:38.768Z,2.70
2019-01-18T13:57:12.231Z,2.80
2019-01-18T13:59:44.323Z,2.80
2019-01-18T14:02:15.000Z,2.70
2019-01-18T14:04:45.399Z,2.80
2019-01-18T14:07:16.200Z,2.70
2019-01-18T14:09:46.655Z,2.70
2019-01-18T14:12:17.199Z,2.80
2019-01-18T14:14:48.069Z,2.90
2019-01-18T14:17:19.563Z,2.80
2019-01-18T14:19:50.263Z,2.90
2019-01-18T14:22:21.039Z,3.00
2019-01-18T14:24:51.508Z,2.90
2019-01-18T14:27:22.027Z,2.80
2019-01-18T14:29:52.607Z,2.70
2019-01-18T14:32:23.296Z,2.60
2019-01-18T14:34:53.695Z,2.50
2019-01-18T14:37:24.559Z,2.20
2019-01-18T14:39:55.203Z,2.10
2019-01-18T14:42:25.876Z,2.10
2019-01-18T14:44:57.520Z,2.00
2019-01-18T14:47:28.056Z,2.20
2019-01-18T14:49:58.795Z,2.10
2019-01-18T14:52:29.389Z,2.00
2019-01-18T14:55:00.281Z,2.00
2019-01-18T14:57:30.839Z,1.90
2019-01-18T15:00:09.715Z,1.90
2019-01-18T15:02:40.556Z,1.90
2019-01-18T15:05:11.110Z,1.70
2019-01-18T15:07:41.494Z,1.60
2019-01-18T15:10:14.408Z,1.70
2019-01-18T15:12:46.886Z,1.90
2019-01-18T15:15:17.700Z,2.00
2019-01-18T15:17:54.955Z,1.90
2019-01-18T15:20:27.439Z,1.80
2019-01-18T15:22:58.469Z,1.70
2019-01-18T15:25:28.931Z,1.70
2019-01-18T15:28:00.987Z,1.70
2019-01-18T15:30:32.382Z,1.60
2019-01-18T15:33:08.802Z,1.50
2019-01-18T15:35:37.964Z,1.60
2019-01-18T15:38:10.132Z,1.60
2019-01-18T15:40:44.363Z,1.80
2019-01-18T15:43:16.711Z,1.70
2019-01-18T15:45:47.783Z,1.60
2019-01-18T15:48:18.395Z,1.50
2019-01-18T15:50:49.414Z,1.40
2019-01-18T15:53:20.040Z,1.40
2019-01-18T15:55:50.861Z,1.40
2019-01-18T15:58:22.347Z,1.30
2019-01-18T16:00:53.145Z,1.20
2019-01-18T16:03:23.789Z,1.20
2019-01-18T16:05:54.447Z,1.00
2019-01-18T16:08:25.119Z,1.00
2019-01-18T16:10:56.651Z,0.90
2019-01-18T16:13:28.307Z,0.80
2019-01-18T16:16:24.887Z,0.90
2019-01-18T16:18:56.543Z,0.70
2019-01-18T16:21:27.080Z,0.60
2019-01-18T16:23:58.655Z,0.30
2019-01-18T16:26:29.114Z,0.20
2019-01-18T16:28:59.688Z,0.10
2019-01-18T16:31:30.660Z,-0.10
2019-01-18T16:34:01.397Z,-0.20
2019-01-18T16:36:31.993Z,-0.40
2019-01-18T16:39:02.767Z,-0.50
2019-01-18T16:41:34.649Z,-0.60
2019-01-18T16:44:05.335Z,-0.60
2019-01-18T16:46:36.084Z,-0.80
2019-01-18T16:49:06.715Z,-0.90
2019-01-18T16:51:37.246Z,-1.00
2019-01-18T16:54:08.155Z,-1.10
2019-01-18T16:56:38.899Z,-1.00
2019-01-18T16:59:13.168Z,-1.20
2019-01-18T17:01:51.221Z,-1.20
2019-01-18T17:04:21.899Z,-1.30
2019-01-18T17:06:52.929Z,-1.40
2019-01-18T17:09:23.871Z,-1.40
2019-01-18T17:11:54.439Z,-1.40
2019-01-18T17:14:25.107Z,-1.50
2019-01-18T17:16:55.951Z,-1.40
2019-01-18T17:19:26.763Z,-1.60
2019-01-18T17:21:57.304Z,-1.50
2019-01-18T17:24:28.095Z,-1.70
2019-01-18T17:26:58.551Z,-1.60
2019-01-18T17:29:29.262Z,-1.60
2019-01-18T17:31:59.867Z,-1.70
2019-01-18T17:34:30.833Z,-1.70
2019-01-18T17:37:06.652Z,-1.70
2019-01-18T17:40:03.819Z,-1.80
2019-01-18T17:43:23.965Z,-1.90
2019-01-18T17:46:40.616Z,-1.90
2019-01-18T17:49:50.498Z,-2.10
2019-01-18T17:53:07.039Z,-2.20
2019-01-18T17:56:06.395Z,-2.30
2019-01-18T17:59:10.917Z,-2.50
2019-01-18T18:02:13.367Z,-2.60
2019-01-18T18:04:59.942Z,-2.60
2019-01-18T18:07:55.297Z,-2.60
2019-01-18T18:10:50.263Z,-2.60
2019-01-18T18:13:57.510Z,-2.60
2019-01-18T18:17:01.245Z,-2.60
2019-01-18T18:20:19.062Z,-2.80
2019-01-18T18:23:32.822Z,-2.90
2019-01-18T18:26:34.739Z,-3.00
2019-01-18T18:29:49.331Z,-3.00
2019-01-18T18:33:01.879Z,-2.90
2019-01-18T18:35:56.603Z,-3.00
2019-01-18T18:38:51.199Z,-3.10
2019-01-18T18:42:08.957Z,-3.20
2019-01-18T18:45:23.519Z,-3.20
2019-01-18T18:48:07.697Z,-3.30
2019-01-18T18:51:25.290Z,-3.30
2019-01-18T18:54:44.266Z,-3.40
2019-01-18T18:57:58.567Z,-3.50
2019-01-18T19:01:07.651Z,-3.40
2019-01-18T19:04:10.420Z,-3.50
2019-01-18T19:07:21.055Z,-3.60
2019-01-18T19:10:01.120Z,-3.60
2019-01-18T19:13:12.655Z,-3.60
2019-01-18T19:16:08.091Z,-3.60
2019-01-18T19:19:19.535Z,-3.70
2019-01-18T19:22:34.058Z,-3.80
2019-01-18T19:25:44.188Z,-3.70
2019-01-18T19:28:41.371Z,-3.70
2019-01-18T19:31:48.461Z,-3.70
2019-01-18T19:34:32.418Z,-3.70
2019-01-18T19:37:49.923Z,-3.80
2019-01-18T19:40:52.042Z,-3.90
2019-01-18T19:44:01.384Z,-4.00
2019-01-18T19:47:03.487Z,-4.10
2019-01-18T19:50:10.215Z,-4.10
2019-01-18T19:53:24.866Z,-4.10
2019-01-18T19:56:33.610Z,-4.10
2019-01-18T19:59:28.879Z,-4.10
2019-01-18T20:02:13.567Z,-4.10
2019-01-18T20:05:25.015Z,-4.10
2019-01-18T20:08:10.267Z,-4.20
2019-01-18T20:11:23.323Z,-4.20
2019-01-18T20:14:23.280Z,-4.30
2019-01-18T20:17:04.973Z,-4.30
2019-01-18T20:20:02.495Z,-4.40
2019-01-18T20:23:15.399Z,-4.40
2019-01-18T20:26:28.331Z,-4.40
2019-01-18T20:29:55.019Z,-4.40
2019-01-18T20:32:48.735Z,-4.40
2019-01-18T20:35:57.267Z,-4.40
2019-01-18T20:38:48.675Z,-4.50
2019-01-18T20:41:48.043Z,-4.50
2019-01-18T20:45:06.115Z,-4.50
2019-01-18T20:48:14.783Z,-4.40
2019-01-18T20:51:25.194Z,-4.50
2019-01-18T20:54:40.859Z,-4.50
2019-01-18T20:57:42.787Z,-4.60
2019-01-18T21:00:49.919Z,-4.60
2019-01-18T21:03:47.479Z,-4.60
2019-01-18T21:06:39.938Z,-4.70
2019-01-18T21:09:41.995Z,-4.60
2019-01-18T21:12:49.046Z,-4.70
2019-01-18T21:16:09.589Z,-4.60
2019-01-18T21:19:12.568Z,-4.70
2019-01-18T21:22:28.547Z,-4.70
2019-01-18T21:25:38.606Z,-4.70
2019-01-18T21:29:03.963Z,-4.80
2019-01-18T21:32:06.014Z,-4.70
2019-01-18T21:35:13.270Z,-4.60
2019-01-18T21:38:22.848Z,-4.60
2019-01-18T21:41:55.529Z,-4.60
2019-01-18T21:45:00.796Z,-4.70
2019-01-18T21:48:21.329Z,-4.70
2019-01-18T21:51:19.010Z,-4.70
2019-01-18T21:54:24.814Z,-4.80
2019-01-18T21:57:31.879Z,-4.90
2019-01-18T22:00:39.300Z,-4.90
2019-01-18T22:03:44.669Z,-5.00
2019-01-18T22:07:12.122Z,-5.00
2019-01-18T22:10:02.084Z,-5.00
2019-01-18T22:13:01.606Z,-5.00
2019-01-18T22:16:11.723Z,-4.90
2019-01-18T22:19:22.611Z,-4.70
2019-01-18T22:22:43.543Z,-4.80
2019-01-18T22:25:49.459Z,-4.90
2019-01-18T22:28:57.649Z,-4.90
2019-01-18T22:32:10.843Z,-5.00
2019-01-18T22:35:37.180Z,-5.10
2019-01-18T22:38:31.146Z,-5.10
2019-01-18T22:41:41.614Z,-5.10
2019-01-18T22:44:40.729Z,-5.20
2019-01-18T22:48:10.432Z,-5.20
2019-01-18T22:51:14.462Z,-5.10
2019-01-18T22:54:05.797Z,-5.10
2019-01-18T22:56:48.134Z,-5.10
2019-01-18T23:00:33.787Z,-5.10
2019-01-18T23:03:54.346Z,-5.10
2019-01-18T23:07:16.911Z,-5.20
2019-01-18T23:09:56.139Z,-5.20
2019-01-18T23:13:04.937Z,-5.20
2019-01-18T23:16:12.359Z,-5.30
2019-01-18T23:18:52.602Z,-5.40
2019-01-18T23:22:12.970Z,-5.40
2019-01-18T23:25:11.495Z,-5.40
2019-01-18T23:28:21.604Z,-5.40
2019-01-18T23:31:13.563Z,-5.40
2019-01-18T23:33:57.848Z,-5.40
2019-01-18T23:36:41.703Z,-5.40
2019-01-18T23:39:42.838Z,-5.30
2019-01-18T23:42:52.320Z,-5.00
2019-01-18T23:45:50.850Z,-4.70
2019-01-18T23:49:10.600Z,-4.60
2019-01-18T23:52:17.586Z,-4.40
2019-01-18T23:55:13.766Z,-4.20
2019-01-18T23:58:23.883Z,-4.00
